Converse, SC (29329)

06:07 AM EDT del 30 Luglio 2015 (GMT -0400)
Hillbrook Forest | | Change Station
CLOSE
Current Station
Stazione meteo personale
Location: Spartanburg, SC
Altitudine: 722 ft
Stazioni meteo nelle vicinanze

Alt. 722 ft 34.97 °N, 81.88 °W | Updated 27 minutes ago

Sereno
Sereno
73.9 °F
Sembra 73.9 °F
N
0.0
Vento Variabile Vento da NO

Oggi
Massima -- | Minima -- °F
--% Possibilità di precip.
Ieri
Massima -- | Minima -- °F
Precip. -- in
6:35 AM 8:32 PM
Gobba a ponente, 99% visible
Pressione 29.96 in
Visibilità 5.0 miglia
Nuvole
Punto di rugiada 74 °F
Umidità 99%
Piovosità 0.00 in
Spessore del manto nevoso Non disponibile.
Raggi UV Non disponibile.
Polline 3.40 fuori da 12
Qualità dell'aria Non disponibile.
Flu Activity Non disponibile.
METAR KSPA 300955Z AUTO 00000KT 5SM BR 23/23 A2996 RMK AO2

More Conditions Fewer Conditions

Pressione 29.96 in
Visibilità 5.0 miglia
Nuvole
Punto di rugiada 74 °F
Umidità 99%
Piovosità 0.00 in
Spessore del manto nevoso Non disponibile.
Raggi UV Non disponibile.
Polline 3.40 fuori da 12
Qualità dell'aria Non disponibile.
Flu Activity Non disponibile.
METAR KSPA 300955Z AUTO 00000KT 5SM BR 23/23 A2996 RMK AO2

More Conditions Fewer Conditions

10-Day Weather Forecast

×

Almanac

Astronomia

Jul. 30, 2015 Alba Tramonto
Ora attuale
Crepuscolo civile
Crepuscolo nautico
Crepuscolo astronomico
Luna
Estensione della luce visibile
Lunghezza del giorno
Tomorrow will be .
, % of the Moon is Illuminated

Gli estremi di oggi

State Highs State Lows

Community

WunderPhotos

Upload Photos

1,842,320 foto caricate!

WunderBlogs® & News

Nearby

Qualità dell'aria

  Qualità dell'aria Indice AQ Inquinante
Not available.

Profondità neve

Stazione Profondità Altitudine

Attività sismica

Città  Distanza Mag. Data & Ora
Minimo Magnitudo Mostrato è 2.5.

Temperature delle acque costiere

Località Temperatura

Stations

Stazioni meteo nelle vicinanze

Ubicazione della stazione Temp. Raffreddamento del vento Punto di rugiada Umidità Vento Precip. Alt. Aggiornato Tipo